createdAt,value
2023-05-12T00:01:19.717Z,100840.64
2023-05-12T00:03:31.639Z,100840.91
2023-05-12T00:05:43.219Z,100842.88
2023-05-12T00:07:55.942Z,100845.69
2023-05-12T00:10:07.296Z,100842.98
2023-05-12T00:12:19.650Z,100844.7
2023-05-12T00:14:30.664Z,100843.22
2023-05-12T00:16:43.973Z,100839.41
2023-05-12T00:18:55.231Z,100840.77
2023-05-12T00:21:07.585Z,100843.17
2023-05-12T00:23:18.346Z,100839.64
2023-05-12T00:25:28.931Z,100841.23
2023-05-12T00:27:40.280Z,100838.69
2023-05-12T00:29:51.533Z,100844.94
2023-05-12T00:32:04.173Z,100843.84
2023-05-12T00:34:15.807Z,100841.58
2023-05-12T00:36:26.460Z,100847.33
2023-05-12T00:38:37.983Z,100850.46
2023-05-12T00:40:48.460Z,100844.37
2023-05-12T00:42:58.981Z,100847.05
2023-05-12T00:45:10.928Z,100850.81
2023-05-12T00:47:23.249Z,100848.19
2023-05-12T00:49:36.097Z,100853
2023-05-12T00:51:49.030Z,100855.13
2023-05-12T00:53:59.584Z,100855.45
2023-05-12T00:56:10.415Z,100857.13
2023-05-12T00:58:20.591Z,100857.53
2023-05-12T01:00:32.789Z,100859.3
2023-05-12T01:02:43.446Z,100860.72
2023-05-12T01:04:54.253Z,100862.88
2023-05-12T01:07:05.755Z,100864.91
2023-05-12T01:09:18.328Z,100869.64
2023-05-12T01:11:29.058Z,100872.98
2023-05-12T01:13:40.987Z,100867.98
2023-05-12T01:15:51.495Z,100871.06
2023-05-12T01:18:03.977Z,100867.2
2023-05-12T01:20:15.020Z,100871.04
2023-05-12T01:22:26.340Z,100869.75
2023-05-12T01:24:37.158Z,100867.81
2023-05-12T01:26:48.931Z,100873.13
2023-05-12T01:28:59.873Z,100872.82
2023-05-12T01:31:11.215Z,100873.54
2023-05-12T01:33:22.222Z,100872.85
2023-05-12T01:35:33.980Z,100872.55
2023-05-12T01:37:44.459Z,100872.28
2023-05-12T01:39:55.227Z,100875.53
2023-05-12T01:42:05.668Z,100877.82
2023-05-12T01:44:16.676Z,100876.12
2023-05-12T01:46:26.050Z,100878.86
2023-05-12T01:48:37.888Z,100886.55
2023-05-12T01:50:49.440Z,100882.96
2023-05-12T01:52:59.656Z,100886.09
2023-05-12T01:55:16.806Z,100885.5
2023-05-12T01:57:29.597Z,100883.27
2023-05-12T01:59:44.102Z,100881.81
2023-05-12T02:01:56.283Z,100886.26
2023-05-12T02:04:08.488Z,100884
2023-05-12T02:06:20.674Z,100885.8
2023-05-12T02:08:31.686Z,100885.75
2023-05-12T02:10:44.309Z,100884.09
2023-05-12T02:12:54.775Z,100886.52
2023-05-12T02:15:06.827Z,100889.45
2023-05-12T02:17:18.603Z,100888.19
2023-05-12T02:19:31.619Z,100885.83
2023-05-12T02:21:41.604Z,100889.29
2023-05-12T02:23:54.905Z,100888.17
2023-05-12T02:26:05.087Z,100891.06
2023-05-12T02:28:15.407Z,100888.75
2023-05-12T02:30:26.938Z,100891.02
2023-05-12T02:32:39.127Z,100897.86
2023-05-12T02:34:51.238Z,100894.94
2023-05-12T02:37:04.594Z,100899.31
2023-05-12T02:39:15.378Z,100903.14
2023-05-12T02:41:27.328Z,100900.51
2023-05-12T02:43:38.540Z,100899.91
2023-05-12T02:45:50.716Z,100901.15
2023-05-12T02:48:02.372Z,100904.05
2023-05-12T02:50:15.268Z,100907.84
2023-05-12T02:52:25.911Z,100905.86
2023-05-12T02:54:37.294Z,100910.84
2023-05-12T02:56:48.445Z,100909.7
2023-05-12T02:58:58.621Z,100911.73
2023-05-12T03:01:14.703Z,100917.45
2023-05-12T03:03:27.821Z,100908.77
2023-05-12T03:05:40.016Z,100917.14
2023-05-12T03:07:52.166Z,100913.8
2023-05-12T03:10:04.070Z,100913.92
2023-05-12T03:12:15.974Z,100911.88
2023-05-12T03:14:28.743Z,100913.25
2023-05-12T03:16:42.650Z,100912.36
2023-05-12T03:18:55.295Z,100912.95
2023-05-12T03:21:07.400Z,100916.78
2023-05-12T03:23:18.993Z,100916.36
2023-05-12T03:25:30.600Z,100918.44
2023-05-12T03:27:41.619Z,100917.29
2023-05-12T03:29:53.656Z,100916.63
2023-05-12T03:32:04.291Z,100920.45
2023-05-12T03:34:15.896Z,100921.13
2023-05-12T03:36:26.117Z,100920.25
2023-05-12T03:38:38.613Z,100925.04
2023-05-12T03:40:52.154Z,100925.52
2023-05-12T03:43:04.680Z,100929.53
2023-05-12T03:45:16.276Z,100927.1
2023-05-12T03:47:32.120Z,100930.38
2023-05-12T03:49:45.398Z,100927.69
2023-05-12T03:51:57.779Z,100931.48
2023-05-12T03:54:09.355Z,100927.64
2023-05-12T03:56:21.034Z,100932.85
2023-05-12T03:58:31.134Z,100931.37
2023-05-12T04:00:42.401Z,100936.3
2023-05-12T04:02:58.336Z,100941.53
2023-05-12T04:05:09.777Z,100937.89
2023-05-12T04:07:21.136Z,100939.61
2023-05-12T04:09:35.975Z,100936.85
2023-05-12T04:11:48.752Z,100939.88
2023-05-12T04:13:59.171Z,100943
2023-05-12T04:16:13.043Z,100937.71
2023-05-12T04:18:24.007Z,100939.69
2023-05-12T04:20:34.739Z,100941.22
2023-05-12T04:22:45.877Z,100940.28
2023-05-12T04:24:56.799Z,100940.05
2023-05-12T04:27:08.477Z,100945.19
2023-05-12T04:29:20.300Z,100942.83
2023-05-12T04:31:33.667Z,100943.89
2023-05-12T04:33:50.816Z,100945.8
2023-05-12T04:36:01.857Z,100944.27
2023-05-12T04:38:16.661Z,100951.95
2023-05-12T04:40:29.597Z,100952.38
2023-05-12T04:42:47.074Z,100944.31
2023-05-12T04:45:01.620Z,100943.52
2023-05-12T04:47:40.483Z,100945.77
2023-05-12T04:49:53.217Z,100942.89
2023-05-12T04:52:06.028Z,100940.11
2023-05-12T04:54:16.693Z,100951.33
2023-05-12T04:56:29.076Z,100949.25
2023-05-12T04:58:39.735Z,100954.61
2023-05-12T05:00:54.717Z,100954.27
2023-05-12T05:03:12.180Z,100954.94
2023-05-12T05:05:26.216Z,100958.84
2023-05-12T05:07:37.556Z,100957.31
2023-05-12T05:09:50.170Z,100958.53
2023-05-12T05:12:03.149Z,100958.44
2023-05-12T05:14:14.008Z,100961.36
2023-05-12T05:16:25.674Z,100958.78
2023-05-12T05:18:36.203Z,100954.53
2023-05-12T05:20:59.295Z,100960.34
2023-05-12T05:23:15.089Z,100962.31
2023-05-12T05:25:29.191Z,100960.55
2023-05-12T05:27:39.965Z,100963.16
2023-05-12T05:29:53.213Z,100965.6
2023-05-12T05:32:08.708Z,100968.92
2023-05-12T05:34:21.372Z,100966.77
2023-05-12T05:36:34.409Z,100970.09
2023-05-12T05:38:45.789Z,100967.83
2023-05-12T05:40:57.027Z,100968.76
2023-05-12T05:43:07.297Z,100971.83
2023-05-12T05:45:19.652Z,100968.92
2023-05-12T05:47:38.530Z,100969.27
2023-05-12T05:49:52.623Z,100967.02
2023-05-12T05:52:07.381Z,100970.02
2023-05-12T05:54:19.918Z,100972.48
2023-05-12T05:56:32.429Z,100976.27
2023-05-12T05:58:46.672Z,100976.84
2023-05-12T06:01:00.768Z,100973.62
2023-05-12T06:03:14.450Z,100978.95
2023-05-12T06:05:28.796Z,100978.38
2023-05-12T06:07:41.646Z,100981.16
2023-05-12T06:09:54.946Z,100986.64
2023-05-12T06:12:06.426Z,100975.42
2023-05-12T06:14:18.025Z,100982.53
2023-05-12T06:16:31.895Z,100983.22
2023-05-12T06:18:46.131Z,100983.72
2023-05-12T06:21:00.328Z,100986.72
2023-05-12T06:23:15.365Z,100990.67
2023-05-12T06:25:29.059Z,100984.57
2023-05-12T06:27:46.312Z,100988.56
2023-05-12T06:30:02.547Z,100987.02
2023-05-12T06:32:16.103Z,100992.41
2023-05-12T06:34:28.270Z,100990.36
2023-05-12T06:36:41.417Z,100989.31
2023-05-12T06:38:52.949Z,100984.38
2023-05-12T06:41:04.854Z,100989.09
2023-05-12T06:43:17.952Z,100982.79
2023-05-12T06:45:31.118Z,100985.96
2023-05-12T06:47:43.953Z,100983.99
2023-05-12T06:50:03.032Z,100981.92
2023-05-12T06:52:18.046Z,100986.44
2023-05-12T06:54:29.112Z,100988.55
2023-05-12T06:56:40.229Z,100992.51
2023-05-12T06:58:51.573Z,100984.49
2023-05-12T07:01:05.667Z,100992.51
2023-05-12T07:03:19.422Z,100994.85
2023-05-12T07:05:31.700Z,100996.3
2023-05-12T07:07:42.511Z,100991.39
2023-05-12T07:09:55.015Z,100992.89
2023-05-12T07:12:06.317Z,100985.63
2023-05-12T07:14:17.831Z,100982.08
2023-05-12T07:16:31.645Z,100986.43
2023-05-12T07:18:43.308Z,100988.05
2023-05-12T07:21:01.226Z,100982.65
2023-05-12T07:23:14.348Z,100976.77
2023-05-12T07:25:25.588Z,100977.41
2023-05-12T07:27:40.806Z,100981.5
2023-05-12T07:30:08.293Z,100981.25
2023-05-12T07:32:23.378Z,100979.33
2023-05-12T07:34:39.439Z,100982.19
2023-05-12T07:36:50.169Z,100984.26
2023-05-12T07:39:04.213Z,100978.06
2023-05-12T07:41:15.346Z,100981.51
2023-05-12T07:43:25.772Z,100984.36
2023-05-12T07:45:37.772Z,100984.2
2023-05-12T07:47:50.488Z,100985.9
2023-05-12T07:50:00.691Z,100979.49
2023-05-12T07:52:16.245Z,100974.85
2023-05-12T07:54:27.193Z,100980.59
2023-05-12T07:56:39.208Z,100974.13
2023-05-12T07:58:53.768Z,100977.83
2023-05-12T08:01:16.413Z,100972.29
2023-05-12T08:03:28.491Z,100985.47
2023-05-12T08:05:40.006Z,100983.27
2023-05-12T08:07:52.538Z,100966.81
2023-05-12T08:10:06.706Z,100980.23
2023-05-12T08:12:20.788Z,100984.48
2023-05-12T08:14:31.967Z,100981.81
2023-05-12T08:16:42.747Z,100981.66
2023-05-12T08:18:55.196Z,100981.75
2023-05-12T08:21:07.932Z,100985.77
2023-05-12T08:23:19.168Z,100982.58
2023-05-12T08:25:32.426Z,100979.41
2023-05-12T08:27:49.330Z,100979.88
2023-05-12T08:30:04.087Z,100985.08
2023-05-12T08:32:19.328Z,100986.92
2023-05-12T08:34:29.627Z,100985.21
2023-05-12T08:36:40.793Z,100983.36
2023-05-12T08:38:53.970Z,100987.88
2023-05-12T08:41:07.785Z,100979.1
2023-05-12T08:43:33.402Z,100981.98
2023-05-12T08:45:45.547Z,100975.81
2023-05-12T08:47:56.759Z,100964.51
2023-05-12T08:50:08.623Z,100974.28
2023-05-12T08:52:18.847Z,100983.01
2023-05-12T08:54:30.504Z,100982.17
2023-05-12T08:59:16.687Z,100983.98
2023-05-12T09:01:27.175Z,100982.43
2023-05-12T09:03:39.296Z,100979.84
2023-05-12T09:05:55.305Z,100974.95
2023-05-12T09:08:07.985Z,100985.55
2023-05-12T09:10:36.740Z,100984.52
2023-05-12T09:12:48.462Z,100967.8
2023-05-12T09:14:59.964Z,100984.14
2023-05-12T09:17:11.348Z,100986.73
2023-05-12T09:19:22.183Z,100975.98
2023-05-12T09:21:32.571Z,100969.96
2023-05-12T09:23:42.872Z,100986.64
2023-05-12T09:25:56.850Z,100983.23
2023-05-12T09:28:10.972Z,100975.3
2023-05-12T09:30:25.547Z,100981.8
2023-05-12T09:32:37.891Z,100970.8
2023-05-12T09:34:49.750Z,100971.54
2023-05-12T09:37:01.879Z,100971.67
2023-05-12T09:39:13.011Z,100975.77
2023-05-12T09:41:23.598Z,100973.94
2023-05-12T09:43:35.014Z,100958.28
2023-05-12T09:45:48.037Z,100957.72
2023-05-12T09:47:58.849Z,100978.59
2023-05-12T09:50:09.850Z,100967.02
2023-05-12T09:52:22.288Z,100966.38
2023-05-12T09:54:37.472Z,100962.61
2023-05-12T09:56:48.368Z,100970.03
2023-05-12T09:59:12.986Z,100972.25
2023-05-12T10:01:40.404Z,100969.32
2023-05-12T10:03:53.414Z,100966.06
2023-05-12T10:06:10.422Z,100960.83
2023-05-12T10:08:22.402Z,100960.59
2023-05-12T10:10:35.801Z,100958.26
2023-05-12T10:12:47.408Z,100950.45
2023-05-12T10:14:58.762Z,100955.52
2023-05-12T10:17:10.036Z,100963.66
2023-05-12T10:19:20.943Z,100963.37
2023-05-12T10:21:31.240Z,100959.4
2023-05-12T10:23:43.426Z,100962.89
2023-05-12T10:25:56.162Z,100953.14
2023-05-12T10:28:07.781Z,100943.85
2023-05-12T10:30:18.880Z,100953.3
2023-05-12T10:32:31.103Z,100954.14
2023-05-12T10:34:42.761Z,100950.06
2023-05-12T10:56:16.337Z,100947.95
2023-05-12T10:58:29.962Z,100954.31
2023-05-12T11:00:47.909Z,100939.68
2023-05-12T11:03:11.401Z,100949.34
2023-05-12T11:05:29.199Z,100940.06
2023-05-12T11:07:43.817Z,100945.23
2023-05-12T11:10:05.198Z,100945.39
2023-05-12T11:12:20.092Z,100936.77
2023-05-12T11:14:30.449Z,100938.22
2023-05-12T11:16:44.169Z,100931.82
2023-05-12T11:18:59.345Z,100937.13
2023-05-12T11:27:13.329Z,100929.76
2023-05-12T11:29:27.030Z,100931.69
2023-05-12T11:31:44.448Z,100926.16
2023-05-12T11:34:15.314Z,100935.18
2023-05-12T11:36:28.156Z,100932.63
2023-05-12T11:38:41.231Z,100939.72
2023-05-12T11:40:55.552Z,100928.84
2023-05-12T11:43:06.870Z,100934.83
2023-05-12T11:45:19.112Z,100922.38
2023-05-12T11:47:32.863Z,100933.5
2023-05-12T11:52:29.136Z,100935.16
2023-05-12T11:54:42.391Z,100923.42
2023-05-12T11:57:08.792Z,100924.64
2023-05-12T11:59:21.154Z,100934.8
2023-05-12T12:01:32.813Z,100932.19
2023-05-12T12:03:45.888Z,100926.14
2023-05-12T12:05:58.755Z,100941.82
2023-05-12T12:08:13.117Z,100929.82
2023-05-12T12:10:31.996Z,100922
2023-05-12T12:12:43.411Z,100925.47
2023-05-12T12:14:55.594Z,100921.03
2023-05-12T12:17:08.098Z,100922.48
2023-05-12T12:19:22.318Z,100916.38
2023-05-12T12:21:39.617Z,100922.53
2023-05-12T12:30:01.357Z,100920.73
2023-05-12T12:32:19.341Z,100908.34
2023-05-12T12:34:36.279Z,100923.71
2023-05-12T12:36:50.038Z,100915.7
2023-05-12T12:39:08.379Z,100923.66
2023-05-12T12:41:36.978Z,100916.63
2023-05-12T12:43:54.413Z,100910.8
2023-05-12T12:46:06.115Z,100922.48
2023-05-12T12:48:17.119Z,100918.4
2023-05-12T12:50:47.131Z,100913.53
2023-05-12T12:53:05.055Z,100910.05
2023-05-12T12:55:17.621Z,100912.3
2023-05-12T12:57:31.172Z,100899.8
2023-05-12T12:59:44.479Z,100906.75
2023-05-12T13:01:56.188Z,100901.15
2023-05-12T13:04:10.610Z,100906.66
2023-05-12T13:06:25.758Z,100905.04
2023-05-12T13:08:38.455Z,100902.09
2023-05-12T13:10:51.292Z,100895.21
2023-05-12T13:13:04.175Z,100901.85
2023-05-12T13:15:19.593Z,100904.35
2023-05-12T13:17:54.979Z,100900.53
2023-05-12T13:20:27.034Z,100894.78
2023-05-12T13:22:46.622Z,100894.39
2023-05-12T13:25:10.191Z,100888.87
2023-05-12T13:27:24.083Z,100895.73
2023-05-12T13:29:37.669Z,100888.08
2023-05-12T13:31:52.812Z,100885.67
2023-05-12T13:34:08.546Z,100883.4
2023-05-12T13:36:21.994Z,100885.75
2023-05-12T13:38:50.423Z,100882.12
2023-05-12T13:41:18.294Z,100865.69
2023-05-12T13:43:36.195Z,100873.81
2023-05-12T13:45:49.426Z,100871
2023-05-12T13:48:09.114Z,100891.48
2023-05-12T13:50:27.910Z,100878.42
2023-05-12T13:52:44.853Z,100884.86
2023-05-12T13:55:01.381Z,100874.23
2023-05-12T13:57:18.855Z,100868.47
2023-05-12T13:59:32.710Z,100877.54
2023-05-12T14:01:45.969Z,100875.72
2023-05-12T14:04:02.733Z,100874.31
2023-05-12T14:06:22.056Z,100865.36
2023-05-12T14:08:37.029Z,100865.36
2023-05-12T14:10:55.672Z,100860.55
2023-05-12T14:13:08.680Z,100856.75
2023-05-12T14:15:48.441Z,100867.22
2023-05-12T14:18:05.884Z,100861.16
2023-05-12T14:20:20.031Z,100859.08
2023-05-12T14:22:33.328Z,100855.3
2023-05-12T14:24:59.827Z,100855.88
2023-05-12T14:27:14.322Z,100853.74
2023-05-12T14:29:28.931Z,100858.84
2023-05-12T14:31:43.253Z,100861.61
2023-05-12T14:33:58.611Z,100864.55
2023-05-12T14:36:11.566Z,100865.34
2023-05-12T14:38:26.414Z,100855.61
2023-05-12T14:40:46.669Z,100860.85
2023-05-12T14:43:06.530Z,100861.78
2023-05-12T14:45:24.918Z,100850.75
2023-05-12T14:47:42.733Z,100860.73
2023-05-12T14:49:56.435Z,100866.94
2023-05-12T14:52:13.797Z,100864.48
2023-05-12T14:54:44.717Z,100875.36
2023-05-12T14:57:00.853Z,100874.45
2023-05-12T14:59:14.392Z,100864.21
2023-05-12T15:01:29.245Z,100864.35
2023-05-12T15:03:46.722Z,100860.55
2023-05-12T15:06:11.664Z,100860.59
2023-05-12T15:08:29.831Z,100864.75
2023-05-12T15:10:44.702Z,100866.23
2023-05-12T15:15:41.153Z,100865.44
2023-05-12T15:18:12.879Z,100870.16
2023-05-12T15:20:59.014Z,100862.04
2023-05-12T15:23:27.032Z,100859.23
2023-05-12T15:26:07.069Z,100859.7
2023-05-12T15:28:43.735Z,100862.16
2023-05-12T15:30:57.292Z,100858.31
2023-05-12T15:33:15.578Z,100856.88
2023-05-12T15:35:34.131Z,100853.13
2023-05-12T15:37:47.782Z,100854
2023-05-12T15:40:05.660Z,100854.72
2023-05-12T15:42:29.927Z,100851.66
2023-05-12T15:44:46.217Z,100853.25
2023-05-12T15:47:00.560Z,100857.23
2023-05-12T15:49:18.713Z,100861.16
2023-05-12T15:51:35.532Z,100862.39
2023-05-12T15:53:50.896Z,100856.06
2023-05-12T15:56:05.104Z,100852.02
2023-05-12T15:58:18.438Z,100856.68
2023-05-12T16:00:36.984Z,100850.66
2023-05-12T16:02:53.807Z,100846.76
2023-05-12T16:05:08.852Z,100847.95
2023-05-12T16:07:22.713Z,100844.35
2023-05-12T16:09:41.512Z,100850.61
2023-05-12T16:11:54.809Z,100848.67
2023-05-12T16:14:24.354Z,100849.17
2023-05-12T16:16:39.509Z,100856.75
2023-05-12T16:18:57.535Z,100855.59
2023-05-12T16:21:19.964Z,100858.47
2023-05-12T16:23:36.097Z,100852.69
2023-05-12T16:25:49.830Z,100856.3
2023-05-12T16:28:03.915Z,100857.81
2023-05-12T16:30:25.651Z,100856.01
2023-05-12T16:32:44.709Z,100851.38
2023-05-12T16:34:59.174Z,100854.23
2023-05-12T16:40:06.376Z,100855.95
2023-05-12T16:42:20.635Z,100858.13
2023-05-12T16:44:34.596Z,100859.19
2023-05-12T16:46:47.004Z,100853.17
2023-05-12T16:49:00.391Z,100857.21
2023-05-12T16:51:12.092Z,100858.38
2023-05-12T16:53:27.569Z,100855.7
2023-05-12T16:55:40.733Z,100853.59
2023-05-12T16:57:58.017Z,100856.55
2023-05-12T17:00:12.131Z,100864.88
2023-05-12T17:02:31.800Z,100867.27
2023-05-12T17:04:52.126Z,100863.45
2023-05-12T17:07:07.358Z,100864.92
2023-05-12T17:09:22.375Z,100867.86
2023-05-12T17:11:36.591Z,100874.26
2023-05-12T17:13:56.475Z,100872.97
2023-05-12T17:16:12.235Z,100874.38
2023-05-12T17:18:26.036Z,100871.56
2023-05-12T17:20:38.754Z,100874.14
2023-05-12T17:22:57.913Z,100876.76
2023-05-12T17:25:15.298Z,100876.84
2023-05-12T17:27:33.216Z,100884.7
2023-05-12T17:29:45.672Z,100884.13
2023-05-12T17:31:59.393Z,100883.39
2023-05-12T17:34:11.179Z,100887.32
2023-05-12T17:36:27.990Z,100889.69
2023-05-12T17:38:43.140Z,100887.78
2023-05-12T17:40:56.555Z,100890.93
2023-05-12T17:43:15.653Z,100888.55
2023-05-12T17:45:33.732Z,100889.6
2023-05-12T17:47:49.256Z,100889.55
2023-05-12T17:50:05.399Z,100892.31
2023-05-12T17:52:18.196Z,100889.95
2023-05-12T17:54:33.872Z,100888.24
2023-05-12T17:56:46.640Z,100892.52
2023-05-12T17:58:59.058Z,100894.85
2023-05-12T18:01:11.006Z,100900
2023-05-12T18:03:35.769Z,100897.05
2023-05-12T18:06:03.160Z,100900.2
2023-05-12T18:08:16.519Z,100902.84
2023-05-12T18:10:27.915Z,100902.67
2023-05-12T18:12:44.938Z,100910.02
2023-05-12T18:14:59.657Z,100911.59
2023-05-12T18:17:15.851Z,100913.11
2023-05-12T18:19:29.133Z,100917.9
2023-05-12T18:21:46.263Z,100915.83
2023-05-12T18:24:04.458Z,100913.29
2023-05-12T18:26:20.313Z,100919.73
2023-05-12T18:28:34.018Z,100924.32
2023-05-12T18:30:45.913Z,100924.11
2023-05-12T18:33:11.343Z,100925.77
2023-05-12T18:35:27.576Z,100929.33
2023-05-12T18:37:40.476Z,100930.98
2023-05-12T18:40:03.814Z,100936.13
2023-05-12T18:42:19.834Z,100934.36
2023-05-12T18:44:39.117Z,100933.91
2023-05-12T18:46:56.039Z,100939.89
2023-05-12T18:49:09.774Z,100931.8
2023-05-12T18:51:24.853Z,100937.3
2023-05-12T18:53:42.855Z,100938.61
2023-05-12T18:56:01.698Z,100939.44
2023-05-12T18:58:14.252Z,100943.73
2023-05-12T19:00:26.436Z,100944.38
2023-05-12T19:02:39.147Z,100943.08
2023-05-12T19:04:53.460Z,100941.98
2023-05-12T19:07:07.956Z,100943.84
2023-05-12T19:09:29.273Z,100944.7
2023-05-12T19:11:45.338Z,100945.09
2023-05-12T19:13:57.979Z,100952.33
2023-05-12T19:16:13.522Z,100954.36
2023-05-12T19:18:29.780Z,100950.55
2023-05-12T19:20:42.212Z,100947.96
2023-05-12T19:23:02.317Z,100950.89
2023-05-12T19:25:16.659Z,100956.74
2023-05-12T19:27:30.693Z,100951.62
2023-05-12T19:29:47.536Z,100955.55
2023-05-12T19:32:01.898Z,100955.48
2023-05-12T19:34:15.600Z,100951.95
2023-05-12T19:36:29.597Z,100953.42
2023-05-12T19:38:42.706Z,100954.06
2023-05-12T19:40:54.539Z,100953.14
2023-05-12T19:43:07.815Z,100953.13
2023-05-12T19:45:22.440Z,100950.7
2023-05-12T19:47:39.222Z,100953.61
2023-05-12T19:49:51.916Z,100956.96
2023-05-12T19:52:05.235Z,100956.03
2023-05-12T19:54:37.758Z,100958.39
2023-05-12T19:56:54.541Z,100960.87
2023-05-12T19:59:25.702Z,100957.63
2023-05-12T20:01:43.935Z,100962.74
2023-05-12T20:03:56.535Z,100963
2023-05-12T20:06:10.487Z,100965.67
2023-05-12T20:08:22.678Z,100959.09
2023-05-12T20:10:40.104Z,100962.55
2023-05-12T20:12:58.320Z,100961.57
2023-05-12T20:15:10.558Z,100964.66
2023-05-12T20:17:22.838Z,100961.61
2023-05-12T20:19:41.140Z,100963.18
2023-05-12T20:21:53.695Z,100960.45
2023-05-12T20:24:19.895Z,100962.11
2023-05-12T20:26:34.995Z,100960.71
2023-05-12T20:28:46.976Z,100961.23
2023-05-12T20:30:59.836Z,100957.74
2023-05-12T20:33:13.337Z,100956.63
2023-05-12T20:35:30.321Z,100958.84
2023-05-12T20:37:46.496Z,100958.59
2023-05-12T20:39:58.177Z,100959.13
2023-05-12T20:42:11.893Z,100960.58
2023-05-12T20:44:23.520Z,100963.16
2023-05-12T20:46:41.297Z,100962.51
2023-05-12T20:48:52.774Z,100956.3
2023-05-12T20:51:04.333Z,100960.3
2023-05-12T20:53:15.089Z,100960.83
2023-05-12T20:55:27.716Z,100960.46
2023-05-12T20:57:44.251Z,100966.39
2023-05-12T20:59:59.791Z,100963.42
2023-05-12T21:02:21.588Z,100965.36
2023-05-12T21:04:48.694Z,100965.81
2023-05-12T21:07:02.538Z,100964.99
2023-05-12T21:09:15.438Z,100968.33
2023-05-12T21:11:28.636Z,100963.91
2023-05-12T21:13:45.412Z,100967.5
2023-05-12T21:16:04.871Z,100966.09
2023-05-12T21:18:24.855Z,100970
2023-05-12T21:20:42.193Z,100972.21
2023-05-12T21:23:12.671Z,100972.95
2023-05-12T21:25:24.556Z,100974.55
2023-05-12T21:27:37.692Z,100975.41
2023-05-12T21:29:49.732Z,100971.37
2023-05-12T21:32:04.234Z,100979.81
2023-05-12T21:34:17.214Z,100977.86
2023-05-12T21:36:29.772Z,100984.94
2023-05-12T21:38:47.228Z,100985.06
2023-05-12T21:41:00.335Z,100988.52
2023-05-12T21:43:13.960Z,100986.13
2023-05-12T21:45:31.612Z,100987.13
2023-05-12T21:47:54.444Z,100991.45
2023-05-12T21:50:11.379Z,100992.08
2023-05-12T21:52:23.968Z,100990.97
2023-05-12T21:54:41.188Z,100992.21
2023-05-12T21:56:59.231Z,100991.42
2023-05-12T21:59:14.034Z,100987.63
2023-05-12T22:01:25.729Z,100989.31
2023-05-12T22:03:39.711Z,100989.77
2023-05-12T22:05:51.939Z,100992.71
2023-05-12T22:08:05.417Z,100991.17
2023-05-12T22:10:18.672Z,100991.19
2023-05-12T22:12:35.072Z,100991.8
2023-05-12T22:15:01.093Z,100994.59
2023-05-12T22:17:13.568Z,100997.91
2023-05-12T22:19:27.175Z,100992.27
2023-05-12T22:21:42.839Z,100992.75
2023-05-12T22:24:17.071Z,100992.45
2023-05-12T22:26:31.281Z,100990.7
2023-05-12T22:28:43.222Z,100991.17
2023-05-12T22:30:54.222Z,100990.55
2023-05-12T22:33:11.300Z,100988.2
2023-05-12T22:35:23.419Z,100990.52
2023-05-12T22:37:36.814Z,100990.61
2023-05-12T22:39:49.321Z,100990.63
2023-05-12T22:42:20.835Z,100995.3
2023-05-12T22:44:55.621Z,100995
2023-05-12T22:47:08.280Z,100992.92
2023-05-12T22:49:20.197Z,100990.11
2023-05-12T22:51:37.595Z,100992.52
2023-05-12T22:54:02.202Z,100992.08
2023-05-12T22:56:14.316Z,100990.8
2023-05-12T22:58:27.398Z,100994.8
2023-05-12T23:00:39.821Z,100996.78
2023-05-12T23:02:52.139Z,100993.5
2023-05-12T23:05:04.838Z,100993.4
2023-05-12T23:07:17.957Z,101000.16
2023-05-12T23:09:29.133Z,100998.33
2023-05-12T23:11:42.298Z,101001.37
2023-05-12T23:13:58.020Z,101000.86
2023-05-12T23:16:09.442Z,101002.72
2023-05-12T23:18:26.201Z,101001.55
2023-05-12T23:20:40.199Z,101001.97
2023-05-12T23:22:57.031Z,101003
2023-05-12T23:25:12.367Z,101005.06
2023-05-12T23:27:29.717Z,101005.03
2023-05-12T23:29:42.678Z,101004.17
2023-05-12T23:31:54.696Z,101004.02
2023-05-12T23:34:08.776Z,101003.37
2023-05-12T23:36:21.077Z,101003.97
2023-05-12T23:38:33.316Z,101005.19
2023-05-12T23:40:48.232Z,101005.02
2023-05-12T23:43:05.295Z,101007.73
2023-05-12T23:45:16.501Z,101001.36
2023-05-12T23:47:30.429Z,101001.98
2023-05-12T23:49:43.555Z,101003.77
2023-05-12T23:51:55.651Z,101001.59
2023-05-12T23:54:07.514Z,100997.88
2023-05-12T23:56:22.459Z,100993.87
2023-05-12T23:58:35.558Z,100997.16
